Red Scaffold, South Dakota
Current Conditions -  °F | °C
As of 5:55 AM on Monday 22 Dec 2014 (Local Time) from KPHP Reporting Station
Overcast Overcast  
Wind Chill: 30°   Ceiling: 11000
Heat Index: 39°   Visibility: 10mi
Dew Point: 31°   Wind: 16mph
Humidity: 73%   Direction: 290°WNW
Pressure: 29.51"   Gusts: 24mph
Location:  44.534°N, 102.24°W
Report Text: KPHP 221255Z AUTO 29014G21KT 10SM OVC110 04/M01 A2951 RMK AO2 SLP001 T00391006
Loading
Personal Weather Stations






























Interactive Weather Map New forecast layout! Learn more

10-Day Weather Forecast

Advertisements
Track Severe Weather on mobile